createdAt,value
2017-09-25T00:01:35.033Z,19.52
2017-09-25T00:04:01.433Z,21.12
2017-09-25T00:06:27.758Z,20.35
2017-09-25T00:08:55.604Z,21.85
2017-09-25T00:11:22.898Z,21.83
2017-09-25T00:13:50.356Z,21.85
2017-09-25T00:16:19.528Z,19.70
2017-09-25T00:18:45.897Z,20.23
2017-09-25T00:21:12.260Z,21.62
2017-09-25T00:23:39.962Z,19.55
2017-09-25T00:26:06.382Z,20.80
2017-09-25T00:28:32.787Z,20.95
2017-09-25T00:30:59.172Z,20.35
2017-09-25T00:33:25.551Z,21.87
2017-09-25T00:35:51.962Z,21.40
2017-09-25T00:38:19.460Z,21.62
2017-09-25T00:40:46.232Z,19.70
2017-09-25T00:43:12.618Z,20.15
2017-09-25T00:45:39.597Z,20.15
2017-09-25T00:48:06.022Z,20.40
2017-09-25T00:50:32.415Z,18.35
2017-09-25T00:53:11.053Z,19.35
2017-09-25T00:55:49.898Z,19.05
2017-09-25T00:58:16.313Z,19.05
2017-09-25T01:00:54.976Z,19.95
2017-09-25T01:03:35.273Z,18.65
2017-09-25T01:06:13.889Z,19.15
2017-09-25T01:08:40.272Z,19.37
2017-09-25T01:11:07.343Z,20.30
2017-09-25T01:13:33.739Z,20.70
2017-09-25T01:16:00.847Z,18.35
2017-09-25T01:18:27.487Z,18.73
2017-09-25T01:20:53.885Z,18.02
2017-09-25T01:23:22.150Z,20.88
2017-09-25T01:25:50.178Z,19.55
2017-09-25T01:28:16.851Z,18.25
2017-09-25T01:30:43.951Z,20.83
2017-09-25T01:33:10.317Z,18.40
2017-09-25T01:35:37.769Z,20.15
2017-09-25T01:38:04.895Z,19.62
2017-09-25T01:40:31.601Z,18.80
2017-09-25T01:42:58.875Z,17.45
2017-09-25T01:45:25.292Z,18.70
2017-09-25T01:47:51.637Z,18.30
2017-09-25T01:50:18.009Z,18.15
2017-09-25T01:52:46.351Z,18.02
2017-09-25T01:55:14.103Z,19.00
2017-09-25T01:57:40.696Z,19.10
2017-09-25T02:00:07.050Z,18.87
2017-09-25T02:02:33.418Z,20.05
2017-09-25T02:05:00.037Z,17.67
2017-09-25T02:07:27.150Z,18.15
2017-09-25T02:09:53.506Z,16.70
2017-09-25T02:12:19.892Z,16.95
2017-09-25T02:14:46.250Z,17.15
2017-09-25T02:17:12.619Z,16.73
2017-09-25T02:19:39.350Z,16.65
2017-09-25T02:22:05.692Z,16.37
2017-09-25T02:24:32.086Z,18.33
2017-09-25T02:26:58.479Z,18.02
2017-09-25T02:29:24.876Z,15.00
2017-09-25T02:31:51.237Z,16.12
2017-09-25T02:34:17.581Z,15.80
2017-09-25T02:36:44.005Z,17.20
2017-09-25T02:39:10.381Z,17.02
2017-09-25T02:41:36.751Z,18.40
2017-09-25T02:44:03.860Z,15.18
2017-09-25T02:46:30.507Z,15.52
2017-09-25T02:48:56.879Z,14.87
2017-09-25T02:51:23.261Z,15.18
2017-09-25T02:53:49.618Z,14.63
2017-09-25T02:56:16.720Z,15.32
2017-09-25T02:58:43.101Z,15.80
2017-09-25T03:01:10.208Z,20.40
2017-09-25T03:03:36.571Z,23.17
2017-09-25T03:06:03.671Z,20.60
2017-09-25T03:08:30.297Z,21.37
2017-09-25T03:10:56.631Z,22.80
2017-09-25T03:13:23.001Z,19.12
2017-09-25T03:15:50.144Z,17.20
2017-09-25T03:18:16.481Z,19.42
2017-09-25T03:20:43.654Z,16.45
2017-09-25T03:23:11.383Z,14.70
2017-09-25T03:25:37.818Z,15.32
2017-09-25T03:28:04.286Z,14.07
2017-09-25T03:30:30.689Z,13.00
2017-09-25T03:32:57.810Z,14.38
2017-09-25T03:35:24.181Z,12.73
2017-09-25T03:37:50.529Z,12.93
2017-09-25T03:40:17.227Z,13.48
2017-09-25T03:42:43.603Z,11.53
2017-09-25T03:45:09.984Z,14.45
2017-09-25T03:47:37.144Z,14.50
2017-09-25T03:50:04.291Z,15.70
2017-09-25T03:52:30.708Z,15.17
2017-09-25T03:54:57.987Z,16.17
2017-09-25T03:57:24.449Z,14.02
2017-09-25T03:59:50.784Z,13.77
2017-09-25T04:02:17.551Z,13.83
2017-09-25T04:04:43.939Z,12.60
2017-09-25T04:07:10.330Z,13.73
2017-09-25T04:09:37.433Z,14.20
2017-09-25T04:12:03.806Z,13.70
2017-09-25T04:14:31.255Z,12.95
2017-09-25T04:16:57.572Z,12.23
2017-09-25T04:19:23.941Z,13.10
2017-09-25T04:21:50.338Z,13.65
2017-09-25T04:24:16.748Z,14.63
2017-09-25T04:26:43.168Z,14.85
2017-09-25T04:29:09.532Z,14.95
2017-09-25T04:31:35.927Z,14.00
2017-09-25T04:34:03.019Z,14.80
2017-09-25T04:36:30.128Z,15.13
2017-09-25T04:38:56.480Z,13.45
2017-09-25T04:41:23.333Z,17.25
2017-09-25T04:43:49.731Z,16.65
2017-09-25T04:46:16.122Z,16.40
2017-09-25T04:48:42.524Z,19.30
2017-09-25T04:51:09.633Z,16.80
2017-09-25T04:53:36.011Z,15.52
2017-09-25T04:56:03.192Z,16.20
2017-09-25T04:58:29.616Z,16.77
2017-09-25T05:00:55.963Z,16.00
2017-09-25T05:03:22.446Z,15.68
2017-09-25T05:05:49.528Z,15.05
2017-09-25T05:08:16.214Z,16.62
2017-09-25T05:10:42.585Z,16.12
2017-09-25T05:13:08.952Z,17.23
2017-09-25T05:15:35.329Z,20.00
2017-09-25T05:18:02.440Z,18.92
2017-09-25T05:20:28.803Z,18.20
2017-09-25T05:22:55.932Z,21.17
2017-09-25T05:25:22.293Z,23.40
2017-09-25T05:27:49.401Z,24.20
2017-09-25T05:30:15.777Z,26.33
2017-09-25T05:32:42.135Z,26.95
2017-09-25T05:35:08.521Z,21.12
2017-09-25T05:37:35.616Z,20.20
2017-09-25T05:40:02.283Z,20.75
2017-09-25T05:42:29.400Z,20.85
2017-09-25T05:44:55.792Z,20.95
2017-09-25T05:47:22.211Z,20.05
2017-09-25T05:49:48.619Z,20.15
2017-09-25T05:52:14.989Z,20.35
2017-09-25T05:54:41.432Z,18.30
2017-09-25T05:57:07.839Z,18.65
2017-09-25T05:59:34.945Z,18.87
2017-09-25T06:02:01.594Z,18.27
2017-09-25T06:04:27.989Z,19.65
2017-09-25T06:06:54.328Z,18.85
2017-09-25T06:09:20.771Z,19.87
2017-09-25T06:11:47.469Z,19.65
2017-09-25T06:14:13.887Z,17.90
2017-09-25T06:16:40.289Z,20.10
2017-09-25T06:19:06.685Z,20.90
2017-09-25T06:21:33.043Z,19.00
2017-09-25T06:23:59.800Z,15.90
2017-09-25T06:26:26.928Z,18.65
2017-09-25T06:28:53.288Z,18.55
2017-09-25T06:31:19.672Z,17.52
2017-09-25T06:33:46.077Z,17.37
2017-09-25T06:36:12.464Z,17.10
2017-09-25T06:38:39.527Z,16.98
2017-09-25T06:41:06.216Z,16.12
2017-09-25T06:43:32.555Z,15.80
2017-09-25T06:45:58.975Z,18.77
2017-09-25T06:48:25.374Z,17.33
2017-09-25T06:50:51.768Z,15.68
2017-09-25T06:53:18.877Z,15.60
2017-09-25T06:55:45.398Z,15.70
2017-09-25T06:58:12.392Z,16.50
2017-09-25T07:00:39.514Z,14.20
2017-09-25T07:03:06.101Z,17.60
2017-09-25T07:05:32.473Z,16.02
2017-09-25T07:07:59.159Z,16.27
2017-09-25T07:10:25.549Z,17.20
2017-09-25T07:12:51.942Z,17.25
2017-09-25T07:15:18.321Z,18.00
2017-09-25T07:17:44.706Z,18.45
2017-09-25T07:20:11.145Z,19.90
2017-09-25T07:22:37.511Z,22.80
2017-09-25T07:25:03.893Z,21.87
2017-09-25T07:27:30.283Z,23.92
2017-09-25T07:29:57.394Z,23.33
2017-09-25T07:32:23.804Z,22.15
2017-09-25T07:34:50.489Z,22.37
2017-09-25T07:37:17.591Z,24.33
2017-09-25T07:39:44.983Z,23.80
2017-09-25T07:42:11.369Z,22.62
2017-09-25T07:44:37.742Z,23.48
2017-09-25T07:47:04.133Z,24.20
2017-09-25T07:49:30.537Z,28.92
2017-09-25T07:51:56.951Z,27.30
2017-09-25T07:54:24.105Z,29.87
2017-09-25T07:56:50.808Z,27.13
2017-09-25T07:59:17.177Z,23.15
2017-09-25T08:01:43.642Z,21.95
2017-09-25T08:04:10.117Z,21.42
2017-09-25T08:06:36.470Z,24.90
2017-09-25T08:09:03.631Z,23.10
2017-09-25T08:11:29.971Z,23.07
2017-09-25T08:13:56.332Z,21.40
2017-09-25T08:16:22.705Z,22.70
2017-09-25T08:18:50.140Z,22.97
2017-09-25T08:21:16.507Z,23.90
2017-09-25T08:23:42.873Z,19.60
2017-09-25T08:26:09.250Z,22.17
2017-09-25T08:28:36.371Z,19.70
2017-09-25T08:31:02.752Z,18.77
2017-09-25T08:33:29.218Z,18.90
2017-09-25T08:35:55.843Z,20.20
2017-09-25T08:38:22.196Z,20.13
2017-09-25T08:40:55.593Z,20.23
2017-09-25T08:43:22.698Z,19.53
2017-09-25T08:45:49.080Z,18.50
2017-09-25T08:48:16.233Z,23.10
2017-09-25T08:50:43.360Z,22.00
2017-09-25T08:53:09.757Z,23.33
2017-09-25T08:55:36.104Z,23.57
2017-09-25T08:58:02.769Z,20.50
2017-09-25T09:00:29.147Z,22.43
2017-09-25T09:02:55.557Z,22.37
2017-09-25T09:05:21.907Z,21.40
2017-09-25T09:07:48.291Z,22.63
2017-09-25T09:10:14.682Z,20.77
2017-09-25T09:12:41.029Z,22.30
2017-09-25T09:15:07.448Z,20.60
2017-09-25T09:17:33.792Z,22.43
2017-09-25T09:20:00.162Z,21.07
2017-09-25T09:22:26.518Z,21.93
2017-09-25T09:24:53.199Z,17.13
2017-09-25T09:27:19.600Z,20.93
2017-09-25T09:29:45.942Z,21.37
2017-09-25T09:32:12.387Z,20.97
2017-09-25T09:34:38.804Z,20.50
2017-09-25T09:37:05.216Z,18.20
2017-09-25T09:39:31.608Z,19.00
2017-09-25T09:41:58.333Z,19.03
2017-09-25T09:44:25.450Z,20.80
2017-09-25T09:46:51.852Z,19.87
2017-09-25T09:49:18.245Z,21.40
2017-09-25T09:51:45.328Z,22.43
2017-09-25T09:54:11.764Z,31.90
2017-09-25T09:56:38.114Z,23.40
2017-09-25T09:59:04.480Z,23.70
2017-09-25T10:01:31.602Z,24.20
2017-09-25T10:03:57.991Z,25.90
2017-09-25T10:06:24.344Z,23.33
2017-09-25T10:08:50.713Z,23.47
2017-09-25T10:11:17.991Z,23.80
2017-09-25T10:13:44.441Z,22.50
2017-09-25T10:16:10.849Z,22.70
2017-09-25T10:18:37.202Z,21.30
2017-09-25T10:21:03.883Z,20.50
2017-09-25T10:23:30.242Z,21.20
2017-09-25T10:25:57.319Z,20.70
2017-09-25T10:28:23.737Z,20.20
2017-09-25T10:30:50.043Z,18.63
2017-09-25T10:33:17.175Z,18.90
2017-09-25T10:35:44.285Z,18.50
2017-09-25T10:38:10.658Z,18.00
2017-09-25T10:40:37.788Z,16.77
2017-09-25T10:43:04.540Z,17.00
2017-09-25T10:45:31.671Z,17.10
2017-09-25T10:47:58.094Z,16.50
2017-09-25T10:50:24.458Z,14.60
2017-09-25T10:52:51.564Z,14.97
2017-09-25T10:55:17.942Z,14.80
2017-09-25T10:57:44.322Z,16.40
2017-09-25T11:00:10.698Z,14.50
2017-09-25T11:02:37.808Z,14.10
2017-09-25T11:05:05.401Z,12.97
2017-09-25T11:07:31.777Z,13.40
2017-09-25T11:09:58.140Z,14.43
2017-09-25T11:12:24.476Z,11.77
2017-09-25T11:14:50.860Z,12.40
2017-09-25T11:17:18.390Z,10.73
2017-09-25T11:19:44.823Z,11.17
2017-09-25T11:22:11.197Z,12.40
2017-09-25T11:24:37.575Z,10.40
2017-09-25T11:27:03.939Z,10.70
2017-09-25T11:29:30.322Z,12.37
2017-09-25T11:31:57.457Z,10.07
2017-09-25T11:34:23.817Z,10.97
2017-09-25T11:36:50.179Z,12.67
2017-09-25T11:39:16.851Z,12.00
2017-09-25T11:41:43.202Z,12.30
2017-09-25T11:44:10.290Z,12.23
2017-09-25T11:46:36.710Z,9.10
2017-09-25T11:49:03.054Z,8.30
2017-09-25T11:51:29.500Z,9.50
2017-09-25T11:53:55.878Z,10.07
2017-09-25T11:56:22.529Z,12.10
2017-09-25T11:58:48.920Z,10.73
2017-09-25T12:01:15.292Z,8.37
2017-09-25T12:03:41.645Z,8.77
2017-09-25T12:06:08.065Z,8.70
2017-09-25T12:08:34.457Z,9.57
2017-09-25T12:11:01.545Z,9.90
2017-09-25T12:13:28.003Z,8.93
2017-09-25T12:15:54.372Z,9.30
2017-09-25T12:18:21.476Z,9.60
2017-09-25T12:20:47.854Z,9.80
2017-09-25T12:23:14.516Z,11.13
2017-09-25T12:25:41.616Z,10.07
2017-09-25T12:28:07.962Z,8.87
2017-09-25T12:30:35.696Z,8.37
2017-09-25T12:33:02.823Z,7.80
2017-09-25T12:35:29.206Z,7.33
2017-09-25T12:37:56.291Z,6.97
2017-09-25T12:40:22.633Z,13.77
2017-09-25T12:42:48.982Z,13.30
2017-09-25T12:45:16.151Z,12.63
2017-09-25T12:47:42.514Z,11.90
2017-09-25T12:50:09.023Z,11.07
2017-09-25T12:52:35.360Z,10.43
2017-09-25T12:55:01.807Z,11.97
2017-09-25T12:57:28.195Z,13.20
2017-09-25T12:59:55.293Z,13.90
2017-09-25T13:02:21.656Z,10.87
2017-09-25T13:04:48.033Z,14.30
2017-09-25T13:07:14.730Z,13.50
2017-09-25T13:09:41.112Z,15.90
2017-09-25T13:12:07.468Z,15.47
2017-09-25T13:14:33.869Z,13.53
2017-09-25T13:17:00.227Z,16.40
2017-09-25T13:19:26.787Z,15.93
2017-09-25T13:21:53.182Z,16.30
2017-09-25T13:24:19.551Z,17.30
2017-09-25T13:26:46.681Z,16.90
2017-09-25T13:29:13.061Z,17.27
2017-09-25T13:31:40.278Z,17.23
2017-09-25T13:34:07.378Z,17.50
2017-09-25T13:36:33.787Z,19.33
2017-09-25T13:39:00.178Z,18.10
2017-09-25T13:41:26.555Z,19.07
2017-09-25T13:43:52.900Z,17.67
2017-09-25T13:46:19.291Z,15.47
2017-09-25T13:48:46.385Z,13.43
2017-09-25T13:51:12.783Z,14.03
2017-09-25T13:53:39.215Z,16.17
2017-09-25T13:56:05.598Z,15.57
2017-09-25T13:58:31.929Z,15.33
2017-09-25T14:03:31.002Z,14.20
2017-09-25T14:05:57.379Z,16.70
2017-09-25T14:08:24.477Z,16.70
2017-09-25T14:10:50.918Z,16.10
2017-09-25T14:13:17.268Z,16.70
2017-09-25T14:15:43.628Z,16.03
2017-09-25T14:18:10.732Z,15.23
2017-09-25T14:20:37.122Z,14.47
2017-09-25T14:23:03.476Z,15.30
2017-09-25T14:25:29.798Z,15.70
2017-09-25T14:27:56.186Z,13.27
2017-09-25T14:30:23.268Z,13.43
2017-09-25T14:32:49.655Z,15.50
2017-09-25T14:35:16.002Z,16.03
2017-09-25T14:37:42.439Z,15.00
2017-09-25T14:40:08.776Z,15.77
2017-09-25T14:42:35.170Z,15.70
2017-09-25T14:45:01.528Z,14.97
2017-09-25T14:47:27.904Z,17.60
2017-09-25T14:49:54.269Z,14.80
2017-09-25T14:52:21.349Z,14.33
2017-09-25T14:54:47.761Z,14.37
2017-09-25T14:57:14.191Z,14.20
2017-09-25T14:59:40.540Z,16.83
2017-09-25T15:02:18.218Z,18.30
2017-09-25T15:07:42.241Z,19.47
2017-09-25T15:10:09.334Z,18.90
2017-09-25T15:12:35.706Z,18.37
2017-09-25T15:15:02.071Z,18.33
2017-09-25T15:17:28.712Z,18.37
2017-09-25T15:19:55.076Z,18.00
2017-09-25T15:22:21.471Z,18.77
2017-09-25T15:24:47.870Z,18.10
2017-09-25T15:27:14.302Z,23.03
2017-09-25T15:29:40.737Z,19.77
2017-09-25T15:32:07.159Z,21.73
2017-09-25T15:34:33.881Z,20.50
2017-09-25T15:37:01.076Z,19.60
2017-09-25T15:39:27.509Z,21.73
2017-09-25T15:41:54.671Z,21.10
2017-09-25T15:44:21.355Z,21.67
2017-09-25T15:46:47.923Z,19.20
2017-09-25T15:49:15.164Z,18.90
2017-09-25T15:51:41.616Z,21.63
2017-09-25T15:54:08.125Z,20.43
2017-09-25T15:56:34.512Z,22.00
2017-09-25T15:59:00.921Z,21.90
2017-09-25T16:01:27.939Z,19.90
2017-09-25T16:03:54.339Z,22.83
2017-09-25T16:06:20.779Z,21.77
2017-09-25T16:08:47.136Z,23.90
2017-09-25T16:11:13.509Z,22.10
2017-09-25T16:13:40.614Z,22.80
2017-09-25T16:16:07.040Z,24.23
2017-09-25T16:18:33.406Z,20.83
2017-09-25T16:21:00.506Z,21.40
2017-09-25T16:23:26.902Z,20.97
2017-09-25T16:25:53.280Z,20.40
2017-09-25T16:28:19.640Z,22.10
2017-09-25T16:30:46.389Z,20.40
2017-09-25T16:33:13.531Z,23.87
2017-09-25T16:35:40.657Z,54.13
2017-09-25T16:41:07.931Z,42.60
2017-09-25T16:43:35.075Z,32.40
2017-09-25T16:46:01.460Z,29.63
2017-09-25T16:48:27.881Z,24.40
2017-09-25T16:50:54.251Z,24.47
2017-09-25T16:53:20.628Z,27.93
2017-09-25T16:55:47.823Z,22.43
2017-09-25T16:58:14.208Z,23.30
2017-09-25T17:00:40.557Z,23.13
2017-09-25T17:03:06.949Z,23.63
2017-09-25T17:05:33.295Z,23.57
2017-09-25T17:08:00.392Z,20.50
2017-09-25T17:10:26.780Z,22.00
2017-09-25T17:12:53.173Z,22.70
2017-09-25T17:15:19.556Z,23.83
2017-09-25T17:17:46.256Z,22.37
2017-09-25T17:20:13.358Z,20.53
2017-09-25T17:22:39.727Z,24.43
2017-09-25T17:25:06.144Z,20.90
2017-09-25T17:27:32.550Z,22.03
2017-09-25T17:29:58.968Z,24.00
2017-09-25T17:32:25.401Z,23.30
2017-09-25T17:34:51.807Z,26.70
2017-09-25T17:37:18.169Z,25.43
2017-09-25T17:39:44.579Z,22.80
2017-09-25T17:42:10.917Z,21.20
2017-09-25T17:44:37.323Z,25.20
2017-09-25T17:47:03.752Z,24.30
2017-09-25T17:49:30.177Z,24.10
2017-09-25T17:51:57.301Z,24.00
2017-09-25T17:54:24.061Z,22.93
2017-09-25T17:56:51.159Z,25.33
2017-09-25T17:59:17.588Z,24.47
2017-09-25T18:01:43.997Z,24.27
2017-09-25T18:04:10.407Z,25.43
2017-09-25T18:06:37.562Z,23.93
2017-09-25T18:09:04.043Z,22.87
2017-09-25T18:11:30.552Z,21.17
2017-09-25T18:13:56.963Z,23.87
2017-09-25T18:16:23.440Z,23.50
2017-09-25T18:18:49.862Z,23.53
2017-09-25T18:21:16.267Z,25.27
2017-09-25T18:23:42.707Z,25.03
2017-09-25T18:26:09.096Z,23.07
2017-09-25T18:28:36.247Z,25.20
2017-09-25T18:31:03.429Z,29.50
2017-09-25T18:33:29.842Z,28.80
2017-09-25T18:35:56.237Z,51.37
2017-09-25T18:38:22.750Z,48.23
2017-09-25T18:40:49.131Z,43.00
2017-09-25T18:43:15.620Z,46.13
2017-09-25T18:45:42.062Z,36.47
2017-09-25T18:48:08.558Z,28.63
2017-09-25T18:50:34.990Z,24.57
2017-09-25T18:53:01.454Z,23.20
2017-09-25T18:55:28.053Z,21.33
2017-09-25T18:57:55.300Z,21.97
2017-09-25T19:00:21.749Z,24.77
2017-09-25T19:02:48.220Z,26.10
2017-09-25T19:05:15.442Z,24.83
2017-09-25T19:07:41.901Z,25.33
2017-09-25T19:10:09.062Z,26.40
2017-09-25T19:12:36.269Z,24.07
2017-09-25T19:15:02.707Z,23.80
2017-09-25T19:17:29.196Z,24.20
2017-09-25T19:19:55.668Z,23.50
2017-09-25T19:22:22.107Z,23.00
2017-09-25T19:24:48.867Z,24.20
2017-09-25T19:27:17.050Z,24.10
2017-09-25T19:29:43.529Z,22.83
2017-09-25T19:32:09.996Z,22.80
2017-09-25T19:34:37.211Z,20.97
2017-09-25T19:37:03.660Z,20.80
2017-09-25T19:39:30.179Z,21.53
2017-09-25T19:41:56.597Z,21.97
2017-09-25T19:44:23.109Z,26.00
2017-09-25T19:46:49.584Z,26.57
2017-09-25T19:49:30.953Z,26.50
2017-09-25T19:51:57.426Z,25.43
2017-09-25T19:54:24.795Z,24.17
2017-09-25T19:56:52.173Z,24.37
2017-09-25T19:59:18.625Z,22.00
2017-09-25T20:01:45.090Z,26.10
2017-09-25T20:04:11.604Z,30.07
2017-09-25T20:06:38.082Z,28.90
2017-09-25T20:09:04.553Z,27.30
2017-09-25T20:11:30.989Z,28.30
2017-09-25T20:13:59.205Z,25.30
2017-09-25T20:16:28.354Z,23.20
2017-09-25T20:18:54.770Z,24.97
2017-09-25T20:21:21.924Z,24.30
2017-09-25T20:23:48.326Z,24.83
2017-09-25T20:26:14.733Z,27.10
2017-09-25T20:28:41.844Z,25.83
2017-09-25T20:31:08.212Z,25.07
2017-09-25T20:33:35.323Z,23.13
2017-09-25T20:36:01.678Z,22.40
2017-09-25T20:38:28.141Z,22.40
2017-09-25T20:43:54.035Z,23.60
2017-09-25T20:46:20.465Z,21.40
2017-09-25T20:48:46.907Z,23.00
2017-09-25T20:51:13.321Z,22.80
2017-09-25T20:53:40.067Z,21.10
2017-09-25T20:56:06.682Z,21.43
2017-09-25T21:01:33.293Z,23.50
2017-09-25T21:04:00.006Z,25.17
2017-09-25T21:06:27.175Z,25.43
2017-09-25T21:08:54.292Z,25.43
2017-09-25T21:11:20.661Z,23.90
2017-09-25T21:13:47.086Z,25.23
2017-09-25T21:16:14.232Z,23.77
2017-09-25T21:18:40.599Z,22.77
2017-09-25T21:21:07.315Z,24.07
2017-09-25T21:23:33.698Z,24.03
2017-09-25T21:26:00.818Z,24.20
2017-09-25T21:28:27.232Z,25.90
2017-09-25T21:30:53.587Z,23.30
2017-09-25T21:33:19.963Z,25.10
2017-09-25T21:35:47.038Z,23.23
2017-09-25T21:38:13.427Z,24.07
2017-09-25T21:40:39.801Z,22.27
2017-09-25T21:43:06.408Z,23.70
2017-09-25T21:45:32.839Z,24.37
2017-09-25T21:47:59.941Z,23.57
2017-09-25T21:50:26.400Z,22.50
2017-09-25T21:52:52.770Z,25.77
2017-09-25T21:55:19.185Z,24.53
2017-09-25T21:57:49.683Z,25.40
2017-09-25T22:00:16.047Z,23.30
2017-09-25T22:02:42.431Z,25.00
2017-09-25T22:05:08.787Z,24.20
2017-09-25T22:07:35.917Z,25.87
2017-09-25T22:10:02.349Z,23.67
2017-09-25T22:12:28.710Z,23.83
2017-09-25T22:14:55.779Z,23.83
2017-09-25T22:17:22.424Z,24.80
2017-09-25T22:19:48.783Z,23.80
2017-09-25T22:22:15.134Z,22.80
2017-09-25T22:24:42.274Z,24.87
2017-09-25T22:27:09.397Z,24.37
2017-09-25T22:29:35.797Z,24.87
2017-09-25T22:32:02.172Z,24.40
2017-09-25T22:34:28.610Z,25.73
2017-09-25T22:36:55.000Z,27.53
2017-09-25T22:39:22.148Z,25.67
2017-09-25T22:41:48.528Z,26.70
2017-09-25T22:44:20.105Z,25.70
2017-09-25T22:46:46.502Z,23.07
2017-09-25T22:49:13.259Z,26.10
2017-09-25T22:51:40.406Z,25.83
2017-09-25T22:54:06.842Z,25.17
2017-09-25T22:56:33.268Z,25.75
2017-09-25T22:58:59.662Z,25.83
2017-09-25T23:01:26.078Z,23.98
2017-09-25T23:04:09.231Z,25.47
2017-09-25T23:06:46.409Z,23.60
2017-09-25T23:12:14.776Z,25.45
2017-09-25T23:14:41.132Z,23.83
2017-09-25T23:17:07.547Z,25.73
2017-09-25T23:19:33.912Z,25.55
2017-09-25T23:22:00.680Z,25.85
2017-09-25T23:24:27.079Z,24.58
2017-09-25T23:26:54.215Z,23.12
2017-09-25T23:29:20.603Z,24.10
2017-09-25T23:31:47.809Z,23.90
2017-09-25T23:34:14.199Z,23.80
2017-09-25T23:36:40.560Z,26.30
2017-09-25T23:39:06.941Z,26.67
2017-09-25T23:41:33.315Z,24.00
2017-09-25T23:43:59.700Z,26.40
2017-09-25T23:46:26.083Z,23.98
2017-09-25T23:48:52.456Z,23.83
2017-09-25T23:51:18.801Z,23.93
2017-09-25T23:53:45.155Z,26.52
2017-09-25T23:56:12.058Z,27.42
2017-09-25T23:58:38.405Z,27.70
